Terminal Aerodrome Forecast
Issued by NWS St Louis, MO

Home | Current Version | Previous Version | Text Only | Print | Product List | Glossary On
Versions: 1 2 3 4 5 6 7 8 9 10 11 12 13 14 15 16 17 18 19 20 21 22 23 24
870
FTUS43 KLSX 261914 AAA
TAFSTL
TAF AMD
KSTL 261914Z 2619/2724 30012G19KT P6SM SKC
     FM270000 27006KT P6SM SKC
     FM271600 27010KT P6SM SKC=

USA.gov is the U.S. government's official web portal to all federal, state and local government web resources and services.